Terminal Aerodrome Forecast
Issued by NWS

Home | Current Version | Previous Version | Text Only | Print | Product List | Glossary On
Versions: 1 2 3 4 5 6 7 8 9 10 11 12 13 14 15 16 17 18 19 20 21 22 23 24 25 26 27 28 29 30 31 32 33 34 35 36 37 38 39 40 41 42
000
FTAK31 PANC 242331
TAFADL
TAF
PADL 242331Z 2500/2524 VRB03KT P6SM BKN010
     FM250200 VRB04KT P6SM SCT012 OVC020
     FM250900 07008KT 2SM -SN BR OVC008
     FM251200 10010KT 1SM -SN BR BKN006
     FM251700 17012KT 5SM -SHSN BR OVC005
     FM252100 17014G22KT P6SM -SHSN SCT005 BKN015=

USA.gov is the U.S. government's official web portal to all federal, state and local government web resources and services.